sensor_id;sensor_type;location;lat;lon;timestamp;pressure;altitude;pressure_sealevel;temperature;humidity
26915;BME280;14480;52.608;13.416;2023-03-03T09:54:49;140721.19;;;-13.43;100.00
26915;BME280;14480;52.608;13.416;2023-03-03T10:00:01;140772.81;;;-13.21;100.00
26915;BME280;14480;52.608;13.416;2023-03-03T10:05:20;140760.53;;;-13.27;100.00
26915;BME280;14480;52.608;13.416;2023-03-03T10:10:44;140781.41;;;-13.18;100.00
26915;BME280;14480;52.608;13.416;2023-03-03T10:15:53;140806.00;;;-13.08;100.00
26915;BME280;14480;52.608;13.416;2023-03-03T10:21:02;140786.31;;;-13.16;100.00
26915;BME280;14480;52.608;13.416;2023-03-03T10:26:10;140783.84;;;-13.17;100.00
26915;BME280;14480;52.608;13.416;2023-03-03T10:31:22;140759.31;;;-13.27;100.00
26915;BME280;14480;52.608;13.416;2023-03-03T10:36:33;140692.91;;;-13.55;100.00
26915;BME280;14480;52.608;13.416;2023-03-03T10:47:40;140769.13;;;-13.23;100.00
26915;BME280;14480;52.608;13.416;2023-03-03T10:53:31;140790.00;;;-13.14;100.00
26915;BME280;14480;52.608;13.416;2023-03-03T10:58:48;140845.31;;;-12.91;100.00
26915;BME280;14480;52.608;13.416;2023-03-03T11:09:26;140904.34;;;-12.67;100.00
26915;BME280;14480;52.608;13.416;2023-03-03T11:14:35;140931.41;;;-12.56;100.00
26915;BME280;14480;52.608;13.416;2023-03-03T11:19:47;140909.25;;;-12.65;100.00
26915;BME280;14480;52.608;13.416;2023-03-03T11:25:02;140874.84;;;-12.79;100.00
26915;BME280;14480;52.608;13.416;2023-03-03T11:30:24;140855.13;;;-12.87;100.00
26915;BME280;14480;52.608;13.416;2023-03-03T11:35:37;140916.63;;;-12.62;100.00
26915;BME280;14480;52.608;13.416;2023-03-03T11:40:46;140850.22;;;-12.89;100.00
26915;BME280;14480;52.608;13.416;2023-03-03T11:45:53;140924.03;;;-12.59;100.00
26915;BME280;14480;52.608;13.416;2023-03-03T11:51:02;140944.91;;;-12.50;100.00
26915;BME280;14480;52.608;13.416;2023-03-03T11:56:18;140948.66;;;-12.49;100.00
26915;BME280;14480;52.608;13.416;2023-03-03T12:01:25;140921.59;;;-12.60;100.00
26915;BME280;14480;52.608;13.416;2023-03-03T12:06:32;140823.19;;;-13.01;100.00
26915;BME280;14480;52.608;13.416;2023-03-03T12:17:05;140937.53;;;-12.53;100.00
26915;BME280;14480;52.608;13.416;2023-03-03T12:22:15;140952.34;;;-12.47;100.00
26915;BME280;14480;52.608;13.416;2023-03-03T12:27:26;140973.22;;;-12.39;100.00
26915;BME280;14480;52.608;13.416;2023-03-03T12:32:38;140951.09;;;-12.48;100.00
26915;BME280;14480;52.608;13.416;2023-03-03T12:37:51;141018.75;;;-12.20;100.00
26915;BME280;14480;52.608;13.416;2023-03-03T12:43:02;141088.94;;;-11.91;100.00
26915;BME280;14480;52.608;13.416;2023-03-03T12:48:12;141108.59;;;-11.83;100.00
26915;BME280;14480;52.608;13.416;2023-03-03T12:53:40;141109.81;;;-11.82;100.00
26915;BME280;14480;52.608;13.416;2023-03-03T12:58:49;141058.16;;;-12.03;100.00
26915;BME280;14480;52.608;13.416;2023-03-03T13:04:00;141088.94;;;-11.91;100.00
26915;BME280;14480;52.608;13.416;2023-03-03T13:09:10;141095.06;;;-11.88;100.00
26915;BME280;14480;52.608;13.416;2023-03-03T13:14:20;141085.19;;;-11.92;100.00
26915;BME280;14480;52.608;13.416;2023-03-03T13:19:29;141074.13;;;-11.97;100.00
26915;BME280;14480;52.608;13.416;2023-03-03T13:24:36;141113.56;;;-11.81;100.00
26915;BME280;14480;52.608;13.416;2023-03-03T13:29:47;141113.56;;;-11.81;100.00
26915;BME280;14480;52.608;13.416;2023-03-03T13:34:56;141127.03;;;-11.75;100.00
26915;BME280;14480;52.608;13.416;2023-03-03T13:40:05;141103.66;;;-11.85;100.00
26915;BME280;14480;52.608;13.416;2023-03-03T13:45:15;141085.19;;;-11.92;100.00
26915;BME280;14480;52.608;13.416;2023-03-03T13:50:24;141124.56;;;-11.76;100.00
26915;BME280;14480;52.608;13.416;2023-03-03T13:55:30;141187.34;;;-11.50;100.00
26915;BME280;14480;52.608;13.416;2023-03-03T14:00:49;141184.88;;;-11.51;100.00
26915;BME280;14480;52.608;13.416;2023-03-03T14:05:58;141144.28;;;-11.68;100.00
26915;BME280;14480;52.608;13.416;2023-03-03T14:11:06;141063.06;;;-12.01;100.00
26915;BME280;14480;52.608;13.416;2023-03-03T14:16:14;141166.41;;;-11.59;100.00
26915;BME280;14480;52.608;13.416;2023-03-03T14:21:22;141183.66;;;-11.52;100.00
26915;BME280;14480;52.608;13.416;2023-03-03T14:26:27;141177.50;;;-11.54;100.00
26915;BME280;14480;52.608;13.416;2023-03-03T14:31:37;141251.38;;;-11.24;100.00
26915;BME280;14480;52.608;13.416;2023-03-03T14:36:42;141230.47;;;-11.32;100.00
26915;BME280;14480;52.608;13.416;2023-03-03T14:41:46;141205.84;;;-11.42;100.00
26915;BME280;14480;52.608;13.416;2023-03-03T14:47:02;141267.41;;;-11.17;100.00
26915;BME280;14480;52.608;13.416;2023-03-03T14:52:18;141279.69;;;-11.12;100.00
26915;BME280;14480;52.608;13.416;2023-03-03T14:57:22;141308.03;;;-11.00;100.00
26915;BME280;14480;52.608;13.416;2023-03-03T15:02:42;141348.72;;;-10.83;100.00
26915;BME280;14480;52.608;13.416;2023-03-03T15:07:49;141345.03;;;-10.85;100.00
26915;BME280;14480;52.608;13.416;2023-03-03T15:12:54;141362.25;;;-10.78;100.00
26915;BME280;14480;52.608;13.416;2023-03-03T15:17:57;141338.88;;;-10.87;100.00
26915;BME280;14480;52.608;13.416;2023-03-03T15:28:53;141324.06;;;-10.94;100.00
26915;BME280;14480;52.608;13.416;2023-03-03T15:34:00;141287.13;;;-11.09;100.00
26915;BME280;14480;52.608;13.416;2023-03-03T15:39:08;141306.78;;;-11.01;100.00
26915;BME280;14480;52.608;13.416;2023-03-03T15:44:20;141298.19;;;-11.04;100.00
26915;BME280;14480;52.608;13.416;2023-03-03T15:49:33;141253.88;;;-11.23;100.00
26915;BME280;14480;52.608;13.416;2023-03-03T15:54:45;141250.13;;;-11.24;100.00
26915;BME280;14480;52.608;13.416;2023-03-03T16:00:22;141239.06;;;-11.29;100.00
26915;BME280;14480;52.608;13.416;2023-03-03T16:05:28;141234.16;;;-11.31;100.00
26915;BME280;14480;52.608;13.416;2023-03-03T16:10:35;141230.47;;;-11.32;100.00
26915;BME280;14480;52.608;13.416;2023-03-03T16:15:46;141210.75;;;-11.40;100.00
26915;BME280;14480;52.608;13.416;2023-03-03T16:20:55;141199.69;;;-11.45;100.00
26915;BME280;14480;52.608;13.416;2023-03-03T16:26:11;141183.66;;;-11.52;100.00
26915;BME280;14480;52.608;13.416;2023-03-03T16:31:20;141152.88;;;-11.64;100.00
26915;BME280;14480;52.608;13.416;2023-03-03T16:36:26;141097.53;;;-11.87;100.00
26915;BME280;14480;52.608;13.416;2023-03-03T16:41:36;141054.44;;;-12.05;100.00
26915;BME280;14480;52.608;13.416;2023-03-03T16:46:43;141004.00;;;-12.26;100.00
26915;BME280;14480;52.608;13.416;2023-03-03T16:51:48;140947.41;;;-12.49;100.00
26915;BME280;14480;52.608;13.416;2023-03-03T16:56:57;140909.25;;;-12.65;100.00
26915;BME280;14480;52.608;13.416;2023-03-03T17:02:09;140852.69;;;-12.88;100.00
26915;BME280;14480;52.608;13.416;2023-03-03T17:07:19;140836.72;;;-12.95;100.00
26915;BME280;14480;52.608;13.416;2023-03-03T17:12:28;140807.22;;;-13.07;100.00
26915;BME280;14480;52.608;13.416;2023-03-03T17:17:38;140785.09;;;-13.16;100.00
26915;BME280;14480;52.608;13.416;2023-03-03T17:22:46;140780.22;;;-13.18;100.00
26915;BME280;14480;52.608;13.416;2023-03-03T17:27:59;140759.31;;;-13.27;100.00
26915;BME280;14480;52.608;13.416;2023-03-03T17:33:29;140755.63;;;-13.29;100.00
26915;BME280;14480;52.608;13.416;2023-03-03T17:38:37;140775.25;;;-13.20;100.00
26915;BME280;14480;52.608;13.416;2023-03-03T17:43:45;140815.81;;;-13.04;100.00
26915;BME280;14480;52.608;13.416;2023-03-03T17:49:01;140852.69;;;-12.88;100.00
26915;BME280;14480;52.608;13.416;2023-03-03T17:54:20;140882.19;;;-12.76;100.00
26915;BME280;14480;52.608;13.416;2023-03-03T17:59:38;140896.97;;;-12.70;100.00
26915;BME280;14480;52.608;13.416;2023-03-03T18:04:51;140906.81;;;-12.66;100.00
26915;BME280;14480;52.608;13.416;2023-03-03T18:15:31;140930.19;;;-12.56;100.00
26915;BME280;14480;52.608;13.416;2023-03-03T18:20:45;140949.88;;;-12.48;100.00
26915;BME280;14480;52.608;13.416;2023-03-03T18:25:53;140988.00;;;-12.32;100.00
26915;BME280;14480;52.608;13.416;2023-03-03T18:30:59;141023.66;;;-12.18;100.00
26915;BME280;14480;52.608;13.416;2023-03-03T18:36:09;141033.53;;;-12.14;100.00
26915;BME280;14480;52.608;13.416;2023-03-03T18:41:20;141032.31;;;-12.14;100.00
26915;BME280;14480;52.608;13.416;2023-03-03T18:46:44;141013.84;;;-12.22;100.00
26915;BME280;14480;52.608;13.416;2023-03-03T18:51:50;141018.75;;;-12.20;100.00
26915;BME280;14480;52.608;13.416;2023-03-03T18:57:10;141024.91;;;-12.17;100.00
26915;BME280;14480;52.608;13.416;2023-03-03T19:02:17;141004.00;;;-12.26;100.00
26915;BME280;14480;52.608;13.416;2023-03-03T19:07:24;141005.25;;;-12.25;100.00
26915;BME280;14480;52.608;13.416;2023-03-03T19:17:56;141017.53;;;-12.20;100.00
26915;BME280;14480;52.608;13.416;2023-03-03T19:23:02;140997.81;;;-12.28;100.00
26915;BME280;14480;52.608;13.416;2023-03-03T19:28:20;141008.94;;;-12.24;100.00
26915;BME280;14480;52.608;13.416;2023-03-03T19:33:39;141015.06;;;-12.21;100.00
26915;BME280;14480;52.608;13.416;2023-03-03T19:38:53;141006.47;;;-12.25;100.00
26915;BME280;14480;52.608;13.416;2023-03-03T19:44:02;141033.53;;;-12.14;100.00
26915;BME280;14480;52.608;13.416;2023-03-03T19:49:12;141026.13;;;-12.17;100.00
26915;BME280;14480;52.608;13.416;2023-03-03T19:54:26;141053.19;;;-12.05;100.00
26915;BME280;14480;52.608;13.416;2023-03-03T19:59:39;141061.84;;;-12.02;100.00
26915;BME280;14480;52.608;13.416;2023-03-03T20:04:49;141069.22;;;-11.99;100.00
26915;BME280;14480;52.608;13.416;2023-03-03T20:10:03;141098.75;;;-11.87;100.00
26915;BME280;14480;52.608;13.416;2023-03-03T20:15:10;141122.09;;;-11.77;100.00
26915;BME280;14480;52.608;13.416;2023-03-03T20:25:36;141133.16;;;-11.72;100.00
26915;BME280;14480;52.608;13.416;2023-03-03T20:30:44;141106.13;;;-11.84;100.00
26915;BME280;14480;52.608;13.416;2023-03-03T20:35:52;141058.16;;;-12.03;100.00
26915;BME280;14480;52.608;13.416;2023-03-03T20:41:02;140995.38;;;-12.29;100.00
26915;BME280;14480;52.608;13.416;2023-03-03T20:46:12;141040.91;;;-12.11;100.00
26915;BME280;14480;52.608;13.416;2023-03-03T20:51:21;141050.75;;;-12.07;100.00
26915;BME280;14480;52.608;13.416;2023-03-03T20:56:29;141060.63;;;-12.02;100.00
26915;BME280;14480;52.608;13.416;2023-03-03T21:01:38;140988.00;;;-12.32;100.00
26915;BME280;14480;52.608;13.416;2023-03-03T21:06:48;140992.91;;;-12.30;100.00
26915;BME280;14480;52.608;13.416;2023-03-03T21:11:53;140989.22;;;-12.32;100.00
26915;BME280;14480;52.608;13.416;2023-03-03T21:16:58;141034.78;;;-12.13;100.00
26915;BME280;14480;52.608;13.416;2023-03-03T21:22:08;140989.22;;;-12.32;100.00
26915;BME280;14480;52.608;13.416;2023-03-03T21:27:25;140970.75;;;-12.40;100.00
26915;BME280;14480;52.608;13.416;2023-03-03T21:32:34;140958.47;;;-12.45;100.00
26915;BME280;14480;52.608;13.416;2023-03-03T21:37:42;140985.53;;;-12.33;100.00
26915;BME280;14480;52.608;13.416;2023-03-03T21:42:48;141031.09;;;-12.15;100.00
26915;BME280;14480;52.608;13.416;2023-03-03T21:47:52;140997.81;;;-12.28;100.00
26915;BME280;14480;52.608;13.416;2023-03-03T21:52:56;140978.16;;;-12.37;100.00
26915;BME280;14480;52.608;13.416;2023-03-03T21:58:00;140970.75;;;-12.40;100.00
26915;BME280;14480;52.608;13.416;2023-03-03T22:03:06;140971.97;;;-12.39;100.00
26915;BME280;14480;52.608;13.416;2023-03-03T22:08:09;141004.00;;;-12.26;100.00
26915;BME280;14480;52.608;13.416;2023-03-03T22:13:17;140964.63;;;-12.42;100.00
26915;BME280;14480;52.608;13.416;2023-03-03T22:18:22;140969.53;;;-12.40;100.00
26915;BME280;14480;52.608;13.416;2023-03-03T22:23:25;140942.47;;;-12.51;100.00
26915;BME280;14480;52.608;13.416;2023-03-03T22:28:30;140951.09;;;-12.48;100.00
26915;BME280;14480;52.608;13.416;2023-03-03T22:33:33;140911.72;;;-12.64;100.00
26915;BME280;14480;52.608;13.416;2023-03-03T22:38:36;140942.47;;;-12.51;100.00
